Time;durP1;ratioP1;P1;durP2;ratioP2;P2;SDS_P1;SDS_P2;PMS_P1;PMS_P2;Temp;Humidity;BMP_temperature;BMP_pressure;BME280_temperature;BME280_humidity;BME280_pressure;Samples;Min_cycle;Max_cycle;Signal;HPM_P1;HPM_P2
2021/12/21 00:01:33;;;;;;;7.47;5.10;;;;;;;;;;5078484;28;20499;-74
2021/12/21 00:04:00;;;;;;;9.00;4.70;;;;;;;;;;5077812;28;20441;-73
2021/12/21 00:06:28;;;;;;;8.53;5.27;;;;;;;;;;5077925;28;20543;-73
2021/12/21 00:08:57;;;;;;;8.75;4.53;;;;;;;;;;5078258;28;20788;-73
2021/12/21 00:11:25;;;;;;;9.20;5.43;;;;;;;;;;5078480;28;20245;-73
2021/12/21 00:14:10;;;;;;;12.00;6.40;;;;;;;;;;5078875;28;20452;-73
2021/12/21 00:17:08;;;;;;;9.93;5.67;;;;;;;;;;5079158;28;20986;-73
2021/12/21 00:25:12;;;;;;;5.60;5.10;;;;;;;;;;5077216;28;20429;-74
2021/12/21 00:27:39;;;;;;;11.03;6.10;;;;;;;;;;5078030;28;20453;-74
2021/12/21 00:30:07;;;;;;;6.57;4.80;;;;;;;;;;5078214;28;20857;-73
2021/12/21 00:32:35;;;;;;;7.33;5.83;;;;;;;;;;5078131;28;20763;-73
2021/12/21 00:35:03;;;;;;;10.00;5.07;;;;;;;;;;5077808;28;20461;-73
2021/12/21 00:37:31;;;;;;;8.30;5.53;;;;;;;;;;5078129;28;20488;-73
2021/12/21 00:39:58;;;;;;;9.40;5.87;;;;;;;;;;5078122;28;20698;-73
2021/12/21 00:42:27;;;;;;;9.00;4.70;;;;;;;;;;5077800;28;20456;-73
2021/12/21 00:44:55;;;;;;;10.63;3.73;;;;;;;;;;5077925;28;20860;-73
2021/12/21 00:47:23;;;;;;;11.80;5.15;;;;;;;;;;5078656;28;20541;-73
2021/12/21 00:49:58;;;;;;;9.45;5.00;;;;;;;;;;5077115;28;20236;-73
2021/12/21 00:52:26;;;;;;;5.40;4.90;;;;;;;;;;5077329;28;20241;-72
2021/12/21 00:54:54;;;;;;;6.45;4.55;;;;;;;;;;5077613;28;20218;-72
2021/12/21 00:57:21;;;;;;;7.30;5.63;;;;;;;;;;5081257;28;20223;-72
2021/12/21 00:59:51;;;;;;;33.90;5.15;;;;;;;;;;5080366;28;20456;-73
2021/12/21 01:02:18;;;;;;;7.10;4.27;;;;;;;;;;5081489;28;20206;-73
2021/12/21 01:04:49;;;;;;;6.78;4.20;;;;;;;;;;5079878;28;20448;-73
2021/12/21 01:07:23;;;;;;;7.63;4.20;;;;;;;;;;5079616;28;20238;-72
2021/12/21 01:12:46;;;;;;;8.37;4.37;;;;;;;;;;5024705;28;20678;-73
2021/12/21 01:15:25;;;;;;;7.77;4.23;;;;;;;;;;5079441;28;20880;-73
2021/12/21 01:17:59;;;;;;;5.63;3.10;;;;;;;;;;5079096;28;20488;-73
2021/12/21 01:20:33;;;;;;;7.40;4.80;;;;;;;;;;5079936;28;21019;-73
2021/12/21 01:23:27;;;;;;;6.13;4.50;;;;;;;;;;5079747;28;20883;-73
2021/12/21 01:26:01;;;;;;;8.25;4.22;;;;;;;;;;5079855;28;20452;-73
2021/12/21 01:28:38;;;;;;;9.77;5.10;;;;;;;;;;5080075;28;20309;-73
2021/12/21 01:31:25;;;;;;;5.43;3.83;;;;;;;;;;5073374;28;20464;-77
2021/12/21 01:34:05;;;;;;;5.90;3.77;;;;;;;;;;5079770;28;20744;-73
2021/12/21 01:36:38;;;;;;;3.70;2.83;;;;;;;;;;5079836;28;20463;-73
2021/12/21 01:39:13;;;;;;;8.50;3.83;;;;;;;;;;5079930;28;20746;-73
2021/12/21 01:41:49;;;;;;;5.47;3.93;;;;;;;;;;5080192;28;20575;-73
2021/12/21 01:44:31;;;;;;;10.23;5.53;;;;;;;;;;5079372;28;20895;-73
2021/12/21 01:49:50;;;;;;;10.52;5.45;;;;;;;;;;5079239;28;20479;-73
2021/12/21 01:52:18;;;;;;;7.22;4.28;;;;;;;;;;5078865;28;20305;-73
2021/12/21 01:54:46;;;;;;;7.72;4.70;;;;;;;;;;5079483;28;20583;-73
2021/12/21 01:57:14;;;;;;;12.03;5.23;;;;;;;;;;5078741;28;20846;-73
2021/12/21 01:59:43;;;;;;;8.93;4.27;;;;;;;;;;5078291;28;20453;-73
2021/12/21 02:02:12;;;;;;;9.03;5.43;;;;;;;;;;5079504;28;20912;-73
2021/12/21 02:04:41;;;;;;;6.83;5.10;;;;;;;;;;5078800;28;20482;-73
2021/12/21 02:07:09;;;;;;;5.57;4.40;;;;;;;;;;5077793;28;20736;-72
2021/12/21 02:09:38;;;;;;;10.07;5.90;;;;;;;;;;5079132;28;20467;-72
2021/12/21 02:12:06;;;;;;;7.77;5.03;;;;;;;;;;5078450;28;20455;-72
2021/12/21 02:14:34;;;;;;;6.90;4.33;;;;;;;;;;5078521;28;20453;-72
2021/12/21 02:17:18;;;;;;;9.13;5.70;;;;;;;;;;5078589;28;20488;-72
2021/12/21 02:20:06;;;;;;;9.55;6.18;;;;;;;;;;5077321;28;20460;-72
2021/12/21 02:22:38;;;;;;;8.90;5.30;;;;;;;;;;5078284;28;20744;-72
2021/12/21 02:25:30;;;;;;;5.60;3.83;;;;;;;;;;5078034;28;20468;-72
2021/12/21 02:27:58;;;;;;;4.70;3.97;;;;;;;;;;5077123;28;20441;-72
2021/12/21 02:30:26;;;;;;;11.27;6.22;;;;;;;;;;5077857;28;20456;-72
2021/12/21 02:32:54;;;;;;;9.87;5.97;;;;;;;;;;5077908;28;20240;-72
2021/12/21 02:35:23;;;;;;;9.60;5.68;;;;;;;;;;5077875;28;20919;-72
2021/12/21 02:37:51;;;;;;;12.10;7.67;;;;;;;;;;5078646;28;20337;-72
2021/12/21 02:40:19;;;;;;;13.52;6.53;;;;;;;;;;5078502;28;20457;-72
2021/12/21 02:42:46;;;;;;;6.88;4.03;;;;;;;;;;5076723;28;20214;-72
2021/12/21 02:45:14;;;;;;;7.82;5.30;;;;;;;;;;5078389;28;20494;-73
2021/12/21 02:47:42;;;;;;;14.18;5.45;;;;;;;;;;5077873;28;20194;-72
2021/12/21 02:50:10;;;;;;;7.07;4.93;;;;;;;;;;5078496;28;20210;-72
2021/12/21 02:52:40;;;;;;;10.05;5.70;;;;;;;;;;5078101;28;20206;-72
2021/12/21 02:55:09;;;;;;;9.17;5.50;;;;;;;;;;5077791;28;20221;-72
2021/12/21 02:57:36;;;;;;;8.93;4.40;;;;;;;;;;5077375;28;20480;-73
2021/12/21 03:00:05;;;;;;;10.07;4.30;;;;;;;;;;5078155;28;20671;-72
2021/12/21 03:02:33;;;;;;;13.48;4.80;;;;;;;;;;5077476;28;20212;-72
2021/12/21 03:05:01;;;;;;;13.40;5.82;;;;;;;;;;5077782;28;20567;-72
2021/12/21 03:08:00;;;;;;;7.45;4.25;;;;;;;;;;5076555;28;20587;-73
2021/12/21 03:10:29;;;;;;;7.47;6.10;;;;;;;;;;5077660;28;20276;-73
2021/12/21 03:15:42;;;;;;;10.90;5.80;;;;;;;;;;5077343;28;20851;-73
2021/12/21 03:18:09;;;;;;;6.57;4.30;;;;;;;;;;5076656;28;20230;-73
2021/12/21 03:20:37;;;;;;;10.50;4.83;;;;;;;;;;5077543;28;20444;-73
2021/12/21 03:23:05;;;;;;;6.78;3.58;;;;;;;;;;5077556;28;20836;-73
2021/12/21 03:25:34;;;;;;;6.60;3.33;;;;;;;;;;5076838;28;20566;-73
2021/12/21 03:28:02;;;;;;;12.00;5.90;;;;;;;;;;5077181;28;20474;-73
2021/12/21 03:30:29;;;;;;;6.88;4.65;;;;;;;;;;5077775;28;20449;-73
2021/12/21 03:32:57;;;;;;;8.97;5.10;;;;;;;;;;5077110;28;20654;-73
2021/12/21 03:35:25;;;;;;;5.05;3.75;;;;;;;;;;5077651;28;20506;-72
2021/12/21 03:37:53;;;;;;;9.70;4.18;;;;;;;;;;5077055;28;20234;-73
2021/12/21 03:40:20;;;;;;;7.03;4.68;;;;;;;;;;5076851;28;20217;-73
2021/12/21 03:42:52;;;;;;;4.77;3.23;;;;;;;;;;5077231;28;20487;-73
2021/12/21 03:45:21;;;;;;;6.80;4.10;;;;;;;;;;5077406;28;21038;-72
2021/12/21 03:47:48;;;;;;;8.05;5.45;;;;;;;;;;5076587;28;20209;-72
2021/12/21 03:50:19;;;;;;;6.00;3.77;;;;;;;;;;5076813;28;20213;-72
2021/12/21 03:52:47;;;;;;;5.03;3.88;;;;;;;;;;5076802;28;20440;-73
2021/12/21 03:55:14;;;;;;;20.70;5.20;;;;;;;;;;5075962;28;20214;-73
2021/12/21 03:57:42;;;;;;;4.33;3.40;;;;;;;;;;5077159;28;20485;-73
2021/12/21 04:00:13;;;;;;;8.07;3.70;;;;;;;;;;5076681;28;20757;-73
2021/12/21 04:02:40;;;;;;;6.40;3.42;;;;;;;;;;5076372;28;20456;-73
2021/12/21 04:05:09;;;;;;;6.43;3.45;;;;;;;;;;5077022;28;20541;-73
2021/12/21 04:07:36;;;;;;;10.43;4.57;;;;;;;;;;5077271;28;20221;-73
2021/12/21 04:10:05;;;;;;;9.10;4.10;;;;;;;;;;5076885;28;20202;-73
2021/12/21 04:12:33;;;;;;;6.05;3.35;;;;;;;;;;5076867;28;20448;-72
2021/12/21 04:15:03;;;;;;;6.22;4.30;;;;;;;;;;5076062;28;20210;-73
2021/12/21 04:17:33;;;;;;;4.53;3.33;;;;;;;;;;5077399;28;20532;-73
2021/12/21 04:20:01;;;;;;;6.05;5.10;;;;;;;;;;5076390;28;20214;-73
2021/12/21 04:22:29;;;;;;;6.82;4.05;;;;;;;;;;5075710;28;20217;-73
2021/12/21 04:24:57;;;;;;;5.28;4.35;;;;;;;;;;5075163;28;20213;-72
2021/12/21 04:27:26;;;;;;;10.43;5.33;;;;;;;;;;5076027;28;20202;-73
2021/12/21 04:29:54;;;;;;;7.45;4.70;;;;;;;;;;5077827;28;20452;-72
2021/12/21 04:32:21;;;;;;;6.30;4.60;;;;;;;;;;5080299;28;20213;-73
2021/12/21 04:34:51;;;;;;;11.32;4.63;;;;;;;;;;5080541;28;20460;-72
2021/12/21 04:37:19;;;;;;;6.38;3.97;;;;;;;;;;5080255;28;20206;-73
2021/12/21 04:39:54;;;;;;;5.43;3.70;;;;;;;;;;5079507;28;20195;-73
2021/12/21 04:42:23;;;;;;;6.53;3.07;;;;;;;;;;5080315;28;20206;-72
2021/12/21 04:44:51;;;;;;;8.23;4.35;;;;;;;;;;5079754;28;20458;-73
2021/12/21 04:47:19;;;;;;;6.70;3.30;;;;;;;;;;5080156;28;20293;-72
2021/12/21 04:49:46;;;;;;;5.10;3.50;;;;;;;;;;5080140;28;20217;-72
2021/12/21 04:52:16;;;;;;;4.55;3.38;;;;;;;;;;5080324;28;20582;-73
2021/12/21 04:54:43;;;;;;;9.60;7.68;;;;;;;;;;5080321;28;20207;-72
2021/12/21 04:57:11;;;;;;;6.65;4.13;;;;;;;;;;5079993;28;20633;-73
2021/12/21 04:59:38;;;;;;;5.00;3.95;;;;;;;;;;5079930;28;20233;-73
2021/12/21 05:02:06;;;;;;;6.75;4.28;;;;;;;;;;5079280;28;20209;-73
2021/12/21 05:04:35;;;;;;;4.70;4.03;;;;;;;;;;5079388;28;20214;-73
2021/12/21 05:07:03;;;;;;;5.78;4.53;;;;;;;;;;5080058;28;20210;-73
2021/12/21 05:09:40;;;;;;;3.97;3.40;;;;;;;;;;5079419;28;20594;-73
2021/12/21 05:12:11;;;;;;;6.57;3.42;;;;;;;;;;5079485;28;20210;-73
2021/12/21 05:14:38;;;;;;;7.57;4.57;;;;;;;;;;5079415;28;20213;-73
2021/12/21 05:17:07;;;;;;;8.23;4.60;;;;;;;;;;5079158;28;20207;-73
2021/12/21 05:19:34;;;;;;;4.93;3.95;;;;;;;;;;5078790;28;20226;-73
2021/12/21 05:22:02;;;;;;;4.82;3.03;;;;;;;;;;5078287;28;20210;-73
2021/12/21 05:24:29;;;;;;;9.23;4.32;;;;;;;;;;5079116;28;20875;-73
2021/12/21 05:26:59;;;;;;;7.32;4.00;;;;;;;;;;5079162;28;20493;-73
2021/12/21 05:29:27;;;;;;;5.38;3.03;;;;;;;;;;5079669;28;20202;-73
2021/12/21 05:31:55;;;;;;;4.63;2.97;;;;;;;;;;5078854;28;20214;-73
2021/12/21 05:34:23;;;;;;;5.57;3.45;;;;;;;;;;5081074;28;20305;-73
2021/12/21 05:36:50;;;;;;;5.32;4.22;;;;;;;;;;5061116;28;20269;-73
2021/12/21 05:39:21;;;;;;;6.72;3.35;;;;;;;;;;5061155;28;20227;-73
2021/12/21 05:41:51;;;;;;;4.55;3.03;;;;;;;;;;5061235;28;20217;-73
2021/12/21 05:44:20;;;;;;;5.70;3.78;;;;;;;;;;5060589;28;20218;-73
2021/12/21 05:46:48;;;;;;;5.38;4.88;;;;;;;;;;5058665;28;20261;-73
2021/12/21 05:49:23;;;;;;;8.18;7.45;;;;;;;;;;5058134;28;20207;-74
2021/12/21 05:51:52;;;;;;;8.32;4.50;;;;;;;;;;5056553;28;20234;-73
2021/12/21 05:54:21;;;;;;;6.70;5.97;;;;;;;;;;5056424;28;20213;-73
2021/12/21 05:56:49;;;;;;;15.18;4.30;;;;;;;;;;5056336;28;20206;-73
2021/12/21 05:59:23;;;;;;;6.38;3.70;;;;;;;;;;5056349;28;20548;-72
2021/12/21 06:01:50;;;;;;;8.30;7.53;;;;;;;;;;5056077;28;20494;-73
2021/12/21 06:04:18;;;;;;;4.07;3.15;;;;;;;;;;5055877;28;20264;-72
2021/12/21 06:06:46;;;;;;;8.80;7.90;;;;;;;;;;5057028;28;20386;-73
2021/12/21 06:09:14;;;;;;;12.77;11.47;;;;;;;;;;5057011;28;20211;-73
2021/12/21 06:11:47;;;;;;;6.38;5.80;;;;;;;;;;5056162;28;20450;-73
2021/12/21 06:14:33;;;;;;;8.03;5.43;;;;;;;;;;5056889;28;20392;-73
2021/12/21 06:22:57;;;;;;;6.03;4.80;;;;;;;;;;5055404;28;20686;-73
2021/12/21 06:25:40;;;;;;;9.23;5.88;;;;;;;;;;5056781;28;20207;-72
2021/12/21 06:28:09;;;;;;;11.57;5.40;;;;;;;;;;5056574;28;20267;-73
2021/12/21 06:30:37;;;;;;;9.80;6.15;;;;;;;;;;5055645;28;20207;-72
2021/12/21 06:33:07;;;;;;;13.70;6.35;;;;;;;;;;5054522;28;20203;-73
2021/12/21 06:35:35;;;;;;;14.18;6.53;;;;;;;;;;5054611;28;20223;-73
2021/12/21 06:38:03;;;;;;;7.10;5.00;;;;;;;;;;5055302;28;20220;-73
2021/12/21 06:40:31;;;;;;;19.23;17.42;;;;;;;;;;5055648;28;20467;-72
2021/12/21 06:43:00;;;;;;;9.97;6.77;;;;;;;;;;5053366;28;20199;-72
2021/12/21 06:45:42;;;;;;;16.35;12.40;;;;;;;;;;5054695;28;20536;-72
2021/12/21 06:51:19;;;;;;;11.07;7.95;;;;;;;;;;5074003;28;20200;-72
2021/12/21 06:53:48;;;;;;;6.70;5.20;;;;;;;;;;5075825;28;20238;-72
2021/12/21 06:56:17;;;;;;;6.85;4.70;;;;;;;;;;5074807;28;20257;-72
2021/12/21 06:58:45;;;;;;;8.00;4.97;;;;;;;;;;5073319;28;20241;-72
2021/12/21 07:01:13;;;;;;;5.03;3.87;;;;;;;;;;5074235;28;20449;-73
2021/12/21 07:03:43;;;;;;;6.85;5.47;;;;;;;;;;5074760;28;20861;-73
2021/12/21 07:06:11;;;;;;;8.82;5.38;;;;;;;;;;5064935;28;20607;-73
2021/12/21 07:08:46;;;;;;;7.07;3.80;;;;;;;;;;5066896;28;20624;-72
2021/12/21 07:11:19;;;;;;;12.10;10.70;;;;;;;;;;5071174;28;20440;-73
2021/12/21 07:19:19;;;;;;;15.87;10.97;;;;;;;;;;5075820;28;20581;-72
2021/12/21 07:21:47;;;;;;;8.70;5.28;;;;;;;;;;5076550;28;20452;-73
2021/12/21 07:24:14;;;;;;;35.03;18.77;;;;;;;;;;5075508;28;20198;-73
2021/12/21 07:26:42;;;;;;;6.88;5.85;;;;;;;;;;5074312;28;20226;-74
2021/12/21 07:29:10;;;;;;;7.88;4.63;;;;;;;;;;5074518;28;20203;-73
2021/12/21 07:31:38;;;;;;;15.18;13.52;;;;;;;;;;5074418;28;20206;-73
2021/12/21 07:34:06;;;;;;;9.32;6.88;;;;;;;;;;5060851;28;20207;-73
2021/12/21 07:36:35;;;;;;;11.83;7.50;;;;;;;;;;5071579;28;20202;-73
2021/12/21 07:39:07;;;;;;;16.98;9.57;;;;;;;;;;5074780;28;20492;-74
2021/12/21 07:41:35;;;;;;;15.32;9.80;;;;;;;;;;5066636;28;20639;-73
2021/12/21 07:44:03;;;;;;;24.67;15.85;;;;;;;;;;5055298;28;20303;-73
2021/12/21 07:46:31;;;;;;;18.25;10.60;;;;;;;;;;5055807;28;20206;-73
2021/12/21 07:48:59;;;;;;;21.67;16.65;;;;;;;;;;5056476;28;20199;-73
2021/12/21 07:51:33;;;;;;;15.15;9.10;;;;;;;;;;5055018;28;20210;-73
2021/12/21 07:54:05;;;;;;;16.83;14.75;;;;;;;;;;5055743;28;20293;-72
2021/12/21 07:56:34;;;;;;;14.35;12.82;;;;;;;;;;5055940;28;20221;-72
2021/12/21 07:59:03;;;;;;;18.15;16.40;;;;;;;;;;5055277;28;20237;-73
2021/12/21 08:01:31;;;;;;;15.45;11.40;;;;;;;;;;5055500;28;20232;-73
2021/12/21 08:03:59;;;;;;;11.73;9.73;;;;;;;;;;5055103;28;20269;-73
2021/12/21 08:06:30;;;;;;;8.15;6.78;;;;;;;;;;5071676;28;20209;-73
2021/12/21 08:09:02;;;;;;;17.20;9.50;;;;;;;;;;5068068;28;20228;-73
2021/12/21 08:14:17;;;;;;;16.00;10.27;;;;;;;;;;5073436;28;20289;-73
2021/12/21 08:16:44;;;;;;;13.52;12.30;;;;;;;;;;5063501;28;20202;-74
2021/12/21 08:19:13;;;;;;;15.00;8.70;;;;;;;;;;5068089;28;20222;-73
2021/12/21 08:21:41;;;;;;;10.65;8.15;;;;;;;;;;5058846;28;20610;-73
2021/12/21 08:24:14;;;;;;;9.77;5.88;;;;;;;;;;5056903;28;20263;-73
2021/12/21 08:26:44;;;;;;;9.93;7.15;;;;;;;;;;5056915;28;20584;-73
2021/12/21 08:29:11;;;;;;;11.98;10.77;;;;;;;;;;5054189;28;20596;-73
2021/12/21 08:31:39;;;;;;;21.27;10.93;;;;;;;;;;5054740;28;20268;-73
2021/12/21 08:34:21;;;;;;;13.90;6.78;;;;;;;;;;5061181;28;20213;-74
2021/12/21 08:36:53;;;;;;;17.15;12.25;;;;;;;;;;5073363;28;20222;-74
2021/12/21 08:39:27;;;;;;;14.00;7.13;;;;;;;;;;5054688;28;20282;-74
2021/12/21 08:42:00;;;;;;;14.05;11.82;;;;;;;;;;5054061;28;20238;-74
2021/12/21 08:44:38;;;;;;;10.38;9.32;;;;;;;;;;5054364;28;20215;-76
2021/12/21 08:47:18;;;;;;;17.03;10.93;;;;;;;;;;5054598;28;20210;-75
2021/12/21 08:50:08;;;;;;;13.00;11.40;;;;;;;;;;5053805;28;20519;-72
2021/12/21 08:52:36;;;;;;;14.23;9.83;;;;;;;;;;5056094;28;20453;-77
2021/12/21 08:55:17;;;;;;;31.10;16.45;;;;;;;;;;5057228;28;20446;-76
2021/12/21 08:57:55;;;;;;;17.40;11.47;;;;;;;;;;5056377;28;20536;-76
2021/12/21 09:00:22;;;;;;;10.00;7.50;;;;;;;;;;5054581;28;20567;-75
2021/12/21 09:02:55;;;;;;;13.73;9.63;;;;;;;;;;5054490;28;20286;-75
2021/12/21 09:05:26;;;;;;;10.10;8.43;;;;;;;;;;5053377;28;20665;-74
2021/12/21 09:07:59;;;;;;;14.15;10.00;;;;;;;;;;5052725;28;20199;-76
2021/12/21 09:10:30;;;;;;;21.05;12.98;;;;;;;;;;5053742;28;20199;-75
2021/12/21 09:13:00;;;;;;;10.97;8.83;;;;;;;;;;5053847;28;20234;-74
2021/12/21 09:15:35;;;;;;;12.80;11.60;;;;;;;;;;5052898;28;20464;-73
2021/12/21 09:18:08;;;;;;;15.25;13.35;;;;;;;;;;5067351;28;20987;-74
2021/12/21 09:20:36;;;;;;;15.10;11.57;;;;;;;;;;5068207;28;20261;-73
2021/12/21 09:23:04;;;;;;;15.23;11.52;;;;;;;;;;5060037;28;20253;-73
2021/12/21 09:25:35;;;;;;;11.90;7.67;;;;;;;;;;5068785;28;20203;-72
2021/12/21 09:28:06;;;;;;;14.10;7.93;;;;;;;;;;5068655;28;20515;-72
2021/12/21 09:30:34;;;;;;;24.33;11.00;;;;;;;;;;5061052;28;20830;-72
2021/12/21 09:33:02;;;;;;;13.33;10.80;;;;;;;;;;5076619;28;20206;-72
2021/12/21 09:35:32;;;;;;;26.93;17.53;;;;;;;;;;5061306;28;20976;-72
2021/12/21 09:37:59;;;;;;;16.77;9.70;;;;;;;;;;5057276;28;20464;-71
2021/12/21 09:40:31;;;;;;;18.57;12.17;;;;;;;;;;5056527;28;20488;-71
2021/12/21 09:43:04;;;;;;;12.40;9.63;;;;;;;;;;5062457;28;20457;-73
2021/12/21 09:45:38;;;;;;;10.77;8.10;;;;;;;;;;5076663;28;20471;-73
2021/12/21 09:48:08;;;;;;;13.60;7.63;;;;;;;;;;5077182;28;20475;-74
2021/12/21 09:50:41;;;;;;;10.47;9.00;;;;;;;;;;5064424;28;20465;-74
2021/12/21 09:53:16;;;;;;;12.13;9.10;;;;;;;;;;5046061;28;20503;-74
2021/12/21 09:55:47;;;;;;;16.00;8.87;;;;;;;;;;5060910;28;20460;-74
2021/12/21 09:58:14;;;;;;;14.03;10.23;;;;;;;;;;5056414;28;20474;-73
2021/12/21 10:00:44;;;;;;;14.48;10.48;;;;;;;;;;5057068;28;20578;-72
2021/12/21 10:03:14;;;;;;;10.27;6.87;;;;;;;;;;5060189;28;20555;-73
2021/12/21 10:05:49;;;;;;;11.30;7.70;;;;;;;;;;5069231;28;20459;-73
2021/12/21 10:08:25;;;;;;;13.70;8.70;;;;;;;;;;5055023;28;20461;-75
2021/12/21 10:10:53;;;;;;;13.50;9.77;;;;;;;;;;5056001;28;20445;-74
2021/12/21 10:13:22;;;;;;;12.97;9.37;;;;;;;;;;5054863;28;20523;-75
2021/12/21 10:15:58;;;;;;;11.90;9.47;;;;;;;;;;5054620;28;20457;-73
2021/12/21 10:18:33;;;;;;;12.10;10.23;;;;;;;;;;5058675;28;20464;-73
2021/12/21 10:21:05;;;;;;;9.43;7.70;;;;;;;;;;5058512;28;20476;-72
2021/12/21 10:23:37;;;;;;;16.83;12.40;;;;;;;;;;5064495;28;20493;-73
2021/12/21 10:26:06;;;;;;;12.27;9.00;;;;;;;;;;5056693;28;20523;-73
2021/12/21 10:28:35;;;;;;;12.23;9.60;;;;;;;;;;5056827;28;20560;-74
2021/12/21 10:31:13;;;;;;;16.87;10.03;;;;;;;;;;5065918;28;20457;-74
2021/12/21 10:33:45;;;;;;;11.47;8.03;;;;;;;;;;5072130;28;20445;-74
2021/12/21 10:36:20;;;;;;;16.33;10.17;;;;;;;;;;5060829;28;21102;-74
2021/12/21 10:38:59;;;;;;;11.50;7.87;;;;;;;;;;5056119;28;20465;-74
2021/12/21 10:41:40;;;;;;;11.40;8.47;;;;;;;;;;5065041;28;20738;-74
2021/12/21 10:44:22;;;;;;;17.07;9.83;;;;;;;;;;5060997;28;20585;-74
2021/12/21 10:46:59;;;;;;;13.87;9.03;;;;;;;;;;5069505;28;20453;-73
2021/12/21 10:49:32;;;;;;;17.33;9.60;;;;;;;;;;5063227;28;20729;-73
2021/12/21 10:52:05;;;;;;;14.30;8.20;;;;;;;;;;5067724;28;21080;-73
2021/12/21 10:54:49;;;;;;;10.80;7.13;;;;;;;;;;5069043;28;20462;-73
2021/12/21 10:57:23;;;;;;;11.80;7.63;;;;;;;;;;5065920;28;20448;-72
2021/12/21 10:59:58;;;;;;;19.07;9.57;;;;;;;;;;5060816;28;20515;-73
2021/12/21 11:02:53;;;;;;;13.87;8.80;;;;;;;;;;5055023;28;20873;-73
2021/12/21 11:05:26;;;;;;;11.80;7.17;;;;;;;;;;5056082;28;20527;-73
2021/12/21 11:08:03;;;;;;;13.17;8.90;;;;;;;;;;5056585;28;20560;-73
2021/12/21 11:10:48;;;;;;;9.43;7.43;;;;;;;;;;5063089;28;20464;-74
2021/12/21 11:13:17;;;;;;;12.40;9.00;;;;;;;;;;5068103;28;20566;-73
2021/12/21 11:15:47;;;;;;;13.27;11.57;;;;;;;;;;5062959;28;20558;-73
2021/12/21 11:18:19;;;;;;;10.60;8.23;;;;;;;;;;5056376;28;20736;-73
2021/12/21 11:20:52;;;;;;;11.20;7.77;;;;;;;;;;5055471;28;20558;-74
2021/12/21 11:23:25;;;;;;;11.03;8.57;;;;;;;;;;5055497;28;20461;-75
2021/12/21 11:25:58;;;;;;;13.27;10.10;;;;;;;;;;5055647;28;20453;-74
2021/12/21 11:28:35;;;;;;;14.17;10.40;;;;;;;;;;5056134;28;20476;-73
2021/12/21 11:31:05;;;;;;;13.23;10.33;;;;;;;;;;5053725;28;20456;-73
2021/12/21 11:33:44;;;;;;;18.80;14.80;;;;;;;;;;5054967;28;20532;-74
2021/12/21 11:39:08;;;;;;;17.43;9.07;;;;;;;;;;5053972;28;20437;-74
2021/12/21 11:44:26;;;;;;;17.07;10.03;;;;;;;;;;5054769;28;20450;-74
2021/12/21 11:46:56;;;;;;;15.83;11.77;;;;;;;;;;5053733;28;20450;-74
2021/12/21 11:52:51;;;;;;;14.47;9.23;;;;;;;;;;5036608;28;20480;-75
2021/12/21 11:55:34;;;;;;;20.33;13.33;;;;;;;;;;5054722;28;20450;-73
2021/12/21 11:58:40;;;;;;;25.70;14.90;;;;;;;;;;5049992;28;20561;-77
2021/12/21 12:01:23;;;;;;;24.10;15.20;;;;;;;;;;5058953;28;20496;-75
2021/12/21 12:04:02;;;;;;;23.27;13.83;;;;;;;;;;5073433;28;20543;-73
2021/12/21 12:06:44;;;;;;;14.40;9.10;;;;;;;;;;5057751;28;20475;-74
2021/12/21 12:09:34;;;;;;;18.07;10.70;;;;;;;;;;5059408;28;20473;-74
2021/12/21 12:12:12;;;;;;;21.13;12.10;;;;;;;;;;5054197;28;20469;-74
2021/12/21 12:14:50;;;;;;;17.17;10.83;;;;;;;;;;5055128;28;20579;-73
2021/12/21 12:17:30;;;;;;;12.40;9.57;;;;;;;;;;5054425;28;20738;-74
2021/12/21 12:20:13;;;;;;;11.37;8.23;;;;;;;;;;5054256;28;20485;-74
2021/12/21 12:26:13;;;;;;;;;;;;;;;;;;;;;
2021/12/21 12:28:42;;;;;;;12.57;7.87;;;;;;;;;;5058013;28;20472;-73
2021/12/21 12:31:10;;;;;;;12.13;8.03;;;;;;;;;;5059444;28;20960;-74
2021/12/21 12:33:42;;;;;;;14.20;9.90;;;;;;;;;;5073669;28;20852;-73
2021/12/21 12:36:10;;;;;;;14.27;9.27;;;;;;;;;;5072273;28;20464;-74
2021/12/21 12:38:44;;;;;;;12.67;8.67;;;;;;;;;;5073137;28;20453;-74
2021/12/21 12:41:16;;;;;;;14.53;9.80;;;;;;;;;;5073465;28;20492;-73
2021/12/21 12:43:54;;;;;;;11.33;8.67;;;;;;;;;;5070442;28;20456;-73
2021/12/21 12:46:30;;;;;;;16.13;7.53;;;;;;;;;;5064252;28;20518;-73
2021/12/21 12:52:19;;;;;;;12.20;7.30;;;;;;;;;;5065261;28;20540;-73
2021/12/21 12:54:52;;;;;;;9.30;6.67;;;;;;;;;;5078596;28;20872;-73
2021/12/21 12:57:30;;;;;;;11.57;7.90;;;;;;;;;;5057917;28;21087;-75
2021/12/21 13:00:05;;;;;;;11.23;10.00;;;;;;;;;;5059113;28;20876;-74
2021/12/21 13:02:36;;;;;;;11.83;7.43;;;;;;;;;;5058430;28;20448;-74
2021/12/21 13:05:20;;;;;;;15.10;9.23;;;;;;;;;;5058323;28;20565;-73
2021/12/21 13:07:57;;;;;;;16.27;9.77;;;;;;;;;;5060137;28;20449;-74
2021/12/21 13:10:47;;;;;;;12.70;8.20;;;;;;;;;;5060414;28;20444;-74
2021/12/21 13:13:18;;;;;;;13.53;6.20;;;;;;;;;;5059548;28;20540;-73
2021/12/21 13:15:55;;;;;;;15.43;7.17;;;;;;;;;;5059666;28;20487;-74
2021/12/21 13:18:25;;;;;;;12.57;6.70;;;;;;;;;;5060327;28;20471;-73
2021/12/21 13:20:53;;;;;;;9.83;5.53;;;;;;;;;;5062375;28;20480;-73
2021/12/21 13:23:31;;;;;;;12.50;8.07;;;;;;;;;;5062201;28;20461;-73
2021/12/21 13:26:09;;;;;;;7.70;6.30;;;;;;;;;;5062238;28;20449;-74
2021/12/21 13:31:53;;;;;;;12.43;8.10;;;;;;;;;;5059397;28;20527;-74
2021/12/21 13:34:30;;;;;;;14.77;9.20;;;;;;;;;;5063992;28;20460;-74
2021/12/21 13:37:21;;;;;;;10.23;6.90;;;;;;;;;;5065075;28;20448;-74
2021/12/21 13:39:52;;;;;;;15.23;6.70;;;;;;;;;;5059819;28;20976;-74
2021/12/21 13:42:42;;;;;;;7.93;5.30;;;;;;;;;;5066754;28;20544;-74
2021/12/21 13:45:23;;;;;;;11.97;7.87;;;;;;;;;;5064672;28;20834;-74
2021/12/21 13:47:54;;;;;;;10.40;5.97;;;;;;;;;;5074735;28;20453;-72
2021/12/21 13:50:26;;;;;;;8.27;5.13;;;;;;;;;;5080806;28;20440;-73
2021/12/21 13:53:19;;;;;;;9.70;6.87;;;;;;;;;;5070644;28;20804;-73
2021/12/21 13:55:59;;;;;;;23.43;11.20;;;;;;;;;;5066428;28;20450;-73
2021/12/21 13:59:00;;;;;;;10.43;6.03;;;;;;;;;;5060402;28;20437;-73
2021/12/21 14:14:10;;;;;;;13.63;8.07;;;;;;;;;;5001527;28;20448;-73
2021/12/21 14:19:44;;;;;;;10.73;6.60;;;;;;;;;;5080778;28;20514;-72
2021/12/21 14:22:35;;;;;;;12.10;6.87;;;;;;;;;;5075229;28;20547;-74
2021/12/21 14:25:19;;;;;;;12.43;8.67;;;;;;;;;;5057821;28;20510;-73
2021/12/21 14:27:51;;;;;;;10.80;8.23;;;;;;;;;;5056573;28;20453;-73
2021/12/21 14:30:24;;;;;;;11.80;7.80;;;;;;;;;;5057421;28;20928;-75
2021/12/21 14:33:08;;;;;;;7.80;6.07;;;;;;;;;;5058422;28;20950;-72
2021/12/21 14:35:43;;;;;;;16.43;10.67;;;;;;;;;;5069315;28;20515;-74
2021/12/21 14:38:17;;;;;;;9.33;6.83;;;;;;;;;;5074352;28;20526;-74
2021/12/21 14:40:50;;;;;;;13.50;9.53;;;;;;;;;;5058045;28;20841;-74
2021/12/21 14:43:22;;;;;;;12.00;10.00;;;;;;;;;;5068287;28;20440;-73
2021/12/21 14:45:50;;;;;;;12.00;8.53;;;;;;;;;;5077083;28;20506;-74
2021/12/21 14:48:29;;;;;;;11.90;7.67;;;;;;;;;;5076036;28;20711;-73
2021/12/21 14:51:10;;;;;;;13.97;8.70;;;;;;;;;;5062094;28;20535;-73
2021/12/21 14:53:52;;;;;;;15.43;10.43;;;;;;;;;;5060311;28;20455;-72
2021/12/21 14:56:51;;;;;;;9.80;7.03;;;;;;;;;;5064325;28;20568;-73
2021/12/21 14:59:19;;;;;;;16.57;10.03;;;;;;;;;;5076112;28;20436;-72
2021/12/21 15:01:54;;;;;;;17.23;9.07;;;;;;;;;;5069987;28;20546;-73
2021/12/21 15:04:28;;;;;;;12.90;8.93;;;;;;;;;;5057437;28;20488;-72
2021/12/21 15:07:03;;;;;;;14.33;9.37;;;;;;;;;;5065387;28;20928;-73
2021/12/21 15:09:38;;;;;;;11.27;7.63;;;;;;;;;;5063021;28;20499;-73
2021/12/21 15:12:11;;;;;;;16.50;10.47;;;;;;;;;;5058068;28;20449;-73
2021/12/21 15:14:41;;;;;;;15.20;10.30;;;;;;;;;;5058496;28;20464;-73
2021/12/21 15:17:08;;;;;;;14.43;9.13;;;;;;;;;;5057755;28;20496;-74
2021/12/21 15:19:39;;;;;;;15.43;9.70;;;;;;;;;;5056395;28;20556;-75
2021/12/21 15:22:07;;;;;;;18.43;12.30;;;;;;;;;;5057334;28;20496;-73
2021/12/21 15:24:39;;;;;;;20.43;12.63;;;;;;;;;;5057235;28;20834;-73
2021/12/21 15:27:11;;;;;;;20.23;11.53;;;;;;;;;;5058906;28;20489;-74
2021/12/21 15:29:39;;;;;;;27.50;17.97;;;;;;;;;;5061519;28;20489;-74
2021/12/21 15:32:09;;;;;;;19.47;14.93;;;;;;;;;;5056562;28;20445;-74
2021/12/21 15:34:45;;;;;;;24.20;13.63;;;;;;;;;;5060989;28;20880;-74
2021/12/21 15:37:15;;;;;;;23.40;14.00;;;;;;;;;;5077420;28;20868;-74
2021/12/21 15:39:43;;;;;;;18.50;12.20;;;;;;;;;;5077236;28;20798;-74
2021/12/21 15:42:16;;;;;;;16.37;11.10;;;;;;;;;;5061773;28;20481;-73
2021/12/21 15:44:45;;;;;;;18.80;13.57;;;;;;;;;;5057081;28;20889;-74
2021/12/21 15:47:13;;;;;;;15.77;10.70;;;;;;;;;;5058205;28;20446;-74
2021/12/21 15:49:48;;;;;;;16.80;11.47;;;;;;;;;;5056269;28;20542;-74
2021/12/21 15:52:16;;;;;;;16.50;11.97;;;;;;;;;;5064820;28;20963;-75
2021/12/21 15:54:58;;;;;;;23.83;15.10;;;;;;;;;;5072413;28;20480;-73
2021/12/21 15:57:26;;;;;;;16.50;8.83;;;;;;;;;;5055421;28;20552;-74
2021/12/21 15:59:57;;;;;;;15.80;9.53;;;;;;;;;;5055751;28;20460;-74
2021/12/21 16:02:29;;;;;;;18.47;10.20;;;;;;;;;;5055635;28;20487;-74
2021/12/21 16:05:05;;;;;;;15.93;10.47;;;;;;;;;;5054632;28;20505;-74
2021/12/21 16:07:45;;;;;;;18.13;11.33;;;;;;;;;;5054746;28;20491;-74
2021/12/21 16:10:16;;;;;;;14.87;9.27;;;;;;;;;;5054454;28;20460;-74